sensor_id;sensor_type;location;lat;lon;timestamp;P1;durP1;ratioP1;P2;durP2;ratioP2
69906;SDS011;57190;47.918;8.112;2023-06-10T00:00:36;3.03;;;2.63;;
69906;SDS011;57190;47.918;8.112;2023-06-10T00:03:01;3.50;;;3.17;;
69906;SDS011;57190;47.918;8.112;2023-06-10T00:05:27;3.40;;;3.20;;
69906;SDS011;57190;47.918;8.112;2023-06-10T00:07:55;3.28;;;3.08;;
69906;SDS011;57190;47.918;8.112;2023-06-10T00:10:21;3.20;;;3.00;;
69906;SDS011;57190;47.918;8.112;2023-06-10T00:12:47;3.03;;;2.83;;
69906;SDS011;57190;47.918;8.112;2023-06-10T00:15:12;3.58;;;3.00;;
69906;SDS011;57190;47.918;8.112;2023-06-10T00:17:38;3.45;;;3.15;;
69906;SDS011;57190;47.918;8.112;2023-06-10T00:20:04;3.30;;;3.00;;
69906;SDS011;57190;47.918;8.112;2023-06-10T00:22:37;3.22;;;3.03;;
69906;SDS011;57190;47.918;8.112;2023-06-10T00:25:05;2.90;;;2.70;;
69906;SDS011;57190;47.918;8.112;2023-06-10T00:27:34;3.47;;;3.28;;
69906;SDS011;57190;47.918;8.112;2023-06-10T00:30:03;3.50;;;3.20;;
69906;SDS011;57190;47.918;8.112;2023-06-10T00:32:32;3.33;;;3.03;;
69906;SDS011;57190;47.918;8.112;2023-06-10T00:34:58;2.90;;;2.70;;
69906;SDS011;57190;47.918;8.112;2023-06-10T00:37:23;2.80;;;2.60;;
69906;SDS011;57190;47.918;8.112;2023-06-10T00:39:49;3.63;;;3.30;;
69906;SDS011;57190;47.918;8.112;2023-06-10T00:42:14;3.42;;;3.20;;
69906;SDS011;57190;47.918;8.112;2023-06-10T00:44:40;3.22;;;3.03;;
69906;SDS011;57190;47.918;8.112;2023-06-10T00:47:05;4.13;;;3.15;;
69906;SDS011;57190;47.918;8.112;2023-06-10T00:49:32;3.53;;;3.22;;
69906;SDS011;57190;47.918;8.112;2023-06-10T00:51:58;3.30;;;3.10;;
69906;SDS011;57190;47.918;8.112;2023-06-10T00:54:24;3.63;;;3.33;;
69906;SDS011;57190;47.918;8.112;2023-06-10T00:56:50;3.30;;;3.00;;
69906;SDS011;57190;47.918;8.112;2023-06-10T00:59:17;3.03;;;2.83;;
69906;SDS011;57190;47.918;8.112;2023-06-10T01:01:43;3.30;;;3.10;;
69906;SDS011;57190;47.918;8.112;2023-06-10T01:04:12;3.17;;;2.97;;
69906;SDS011;57190;47.918;8.112;2023-06-10T01:09:23;3.72;;;3.38;;
69906;SDS011;57190;47.918;8.112;2023-06-10T01:14:45;3.80;;;3.30;;
69906;SDS011;57190;47.918;8.112;2023-06-10T01:17:12;3.72;;;3.42;;
69906;SDS011;57190;47.918;8.112;2023-06-10T01:19:41;3.72;;;3.50;;
69906;SDS011;57190;47.918;8.112;2023-06-10T01:22:09;3.92;;;3.65;;
69906;SDS011;57190;47.918;8.112;2023-06-10T01:24:35;3.42;;;3.13;;
69906;SDS011;57190;47.918;8.112;2023-06-10T01:27:03;3.83;;;3.53;;
69906;SDS011;57190;47.918;8.112;2023-06-10T01:29:41;3.53;;;3.33;;
69906;SDS011;57190;47.918;8.112;2023-06-10T01:32:52;3.90;;;3.60;;
69906;SDS011;57190;47.918;8.112;2023-06-10T01:35:03;3.67;;;3.38;;
69906;SDS011;57190;47.918;8.112;2023-06-10T01:37:32;3.40;;;3.20;;
69906;SDS011;57190;47.918;8.112;2023-06-10T01:39:59;3.80;;;3.50;;
69906;SDS011;57190;47.918;8.112;2023-06-10T01:42:27;4.32;;;3.97;;
69906;SDS011;57190;47.918;8.112;2023-06-10T01:44:53;3.70;;;3.50;;
69906;SDS011;57190;47.918;8.112;2023-06-10T01:47:19;4.68;;;4.18;;
69906;SDS011;57190;47.918;8.112;2023-06-10T01:49:44;4.25;;;3.85;;
69906;SDS011;57190;47.918;8.112;2023-06-10T01:52:10;3.88;;;3.63;;
69906;SDS011;57190;47.918;8.112;2023-06-10T01:54:35;4.20;;;3.90;;
69906;SDS011;57190;47.918;8.112;2023-06-10T01:57:01;3.67;;;3.38;;
69906;SDS011;57190;47.918;8.112;2023-06-10T01:59:26;4.18;;;3.88;;
69906;SDS011;57190;47.918;8.112;2023-06-10T02:01:52;3.65;;;3.45;;
69906;SDS011;57190;47.918;8.112;2023-06-10T02:04:18;4.03;;;3.72;;
69906;SDS011;57190;47.918;8.112;2023-06-10T02:06:43;3.45;;;3.25;;
69906;SDS011;57190;47.918;8.112;2023-06-10T02:09:10;4.60;;;4.20;;
69906;SDS011;57190;47.918;8.112;2023-06-10T02:11:35;3.40;;;3.20;;
69906;SDS011;57190;47.918;8.112;2023-06-10T02:14:01;4.30;;;4.00;;
69906;SDS011;57190;47.918;8.112;2023-06-10T02:16:26;4.07;;;3.78;;
69906;SDS011;57190;47.918;8.112;2023-06-10T02:18:52;4.10;;;3.80;;
69906;SDS011;57190;47.918;8.112;2023-06-10T02:21:17;4.10;;;3.80;;
69906;SDS011;57190;47.918;8.112;2023-06-10T02:23:42;4.65;;;4.10;;
69906;SDS011;57190;47.918;8.112;2023-06-10T02:26:08;4.22;;;3.92;;
69906;SDS011;57190;47.918;8.112;2023-06-10T02:28:33;4.20;;;3.80;;
69906;SDS011;57190;47.918;8.112;2023-06-10T02:30:59;4.15;;;3.85;;
69906;SDS011;57190;47.918;8.112;2023-06-10T02:33:25;4.00;;;3.60;;
69906;SDS011;57190;47.918;8.112;2023-06-10T02:35:52;4.22;;;3.90;;
69906;SDS011;57190;47.918;8.112;2023-06-10T02:38:17;4.50;;;4.10;;
69906;SDS011;57190;47.918;8.112;2023-06-10T02:40:43;4.45;;;4.15;;
69906;SDS011;57190;47.918;8.112;2023-06-10T02:43:09;4.72;;;4.43;;
69906;SDS011;57190;47.918;8.112;2023-06-10T02:45:34;4.25;;;3.95;;
69906;SDS011;57190;47.918;8.112;2023-06-10T02:48:00;3.67;;;3.42;;
69906;SDS011;57190;47.918;8.112;2023-06-10T02:50:25;4.53;;;4.22;;
69906;SDS011;57190;47.918;8.112;2023-06-10T02:52:50;4.13;;;3.92;;
69906;SDS011;57190;47.918;8.112;2023-06-10T02:55:16;4.63;;;4.32;;
69906;SDS011;57190;47.918;8.112;2023-06-10T02:57:41;4.22;;;4.00;;
69906;SDS011;57190;47.918;8.112;2023-06-10T03:00:07;4.68;;;4.38;;
69906;SDS011;57190;47.918;8.112;2023-06-10T03:02:36;4.18;;;3.97;;
69906;SDS011;57190;47.918;8.112;2023-06-10T03:05:04;4.57;;;4.28;;
69906;SDS011;57190;47.918;8.112;2023-06-10T03:07:30;4.05;;;3.75;;
69906;SDS011;57190;47.918;8.112;2023-06-10T03:09:56;4.72;;;4.43;;
69906;SDS011;57190;47.918;8.112;2023-06-10T03:12:21;4.88;;;4.50;;
69906;SDS011;57190;47.918;8.112;2023-06-10T03:14:47;4.47;;;4.18;;
69906;SDS011;57190;47.918;8.112;2023-06-10T03:17:12;4.30;;;4.00;;
69906;SDS011;57190;47.918;8.112;2023-06-10T03:19:38;5.32;;;4.15;;
69906;SDS011;57190;47.918;8.112;2023-06-10T03:22:09;4.60;;;4.15;;
69906;SDS011;57190;47.918;8.112;2023-06-10T03:24:39;4.78;;;4.40;;
69906;SDS011;57190;47.918;8.112;2023-06-10T03:27:09;4.00;;;3.80;;
69906;SDS011;57190;47.918;8.112;2023-06-10T03:29:36;4.85;;;4.53;;
69906;SDS011;57190;47.918;8.112;2023-06-10T03:32:02;4.82;;;4.53;;
69906;SDS011;57190;47.918;8.112;2023-06-10T03:34:28;5.00;;;4.60;;
69906;SDS011;57190;47.918;8.112;2023-06-10T03:36:55;4.57;;;4.28;;
69906;SDS011;57190;47.918;8.112;2023-06-10T03:39:21;5.32;;;4.82;;
69906;SDS011;57190;47.918;8.112;2023-06-10T03:41:48;5.50;;;5.10;;
69906;SDS011;57190;47.918;8.112;2023-06-10T03:44:14;5.22;;;4.93;;
69906;SDS011;57190;47.918;8.112;2023-06-10T03:46:39;5.00;;;4.60;;
69906;SDS011;57190;47.918;8.112;2023-06-10T03:49:05;4.65;;;4.35;;
69906;SDS011;57190;47.918;8.112;2023-06-10T03:51:31;4.95;;;4.65;;
69906;SDS011;57190;47.918;8.112;2023-06-10T03:53:56;5.10;;;4.70;;
69906;SDS011;57190;47.918;8.112;2023-06-10T03:56:22;5.20;;;4.90;;
69906;SDS011;57190;47.918;8.112;2023-06-10T03:58:47;5.28;;;4.70;;
69906;SDS011;57190;47.918;8.112;2023-06-10T04:01:13;4.88;;;4.47;;
69906;SDS011;57190;47.918;8.112;2023-06-10T04:03:38;5.70;;;5.15;;
69906;SDS011;57190;47.918;8.112;2023-06-10T04:06:06;4.60;;;4.25;;
69906;SDS011;57190;47.918;8.112;2023-06-10T04:08:32;5.05;;;4.65;;
69906;SDS011;57190;47.918;8.112;2023-06-10T04:10:58;4.53;;;4.20;;
69906;SDS011;57190;47.918;8.112;2023-06-10T04:13:23;5.50;;;4.95;;
69906;SDS011;57190;47.918;8.112;2023-06-10T04:15:49;5.20;;;4.80;;
69906;SDS011;57190;47.918;8.112;2023-06-10T04:18:15;4.75;;;4.45;;
69906;SDS011;57190;47.918;8.112;2023-06-10T04:20:41;5.45;;;5.05;;
69906;SDS011;57190;47.918;8.112;2023-06-10T04:23:07;4.90;;;4.50;;
69906;SDS011;57190;47.918;8.112;2023-06-10T04:25:33;5.72;;;5.30;;
69906;SDS011;57190;47.918;8.112;2023-06-10T04:27:58;4.78;;;4.47;;
69906;SDS011;57190;47.918;8.112;2023-06-10T04:30:24;5.00;;;4.70;;
69906;SDS011;57190;47.918;8.112;2023-06-10T04:32:50;5.07;;;4.55;;
69906;SDS011;57190;47.918;8.112;2023-06-10T04:35:15;4.65;;;4.35;;
69906;SDS011;57190;47.918;8.112;2023-06-10T04:37:41;5.75;;;4.80;;
69906;SDS011;57190;47.918;8.112;2023-06-10T04:40:08;5.13;;;4.80;;
69906;SDS011;57190;47.918;8.112;2023-06-10T04:42:34;5.05;;;4.68;;
69906;SDS011;57190;47.918;8.112;2023-06-10T04:44:59;5.50;;;5.10;;
69906;SDS011;57190;47.918;8.112;2023-06-10T04:47:25;5.03;;;4.65;;
69906;SDS011;57190;47.918;8.112;2023-06-10T04:49:52;4.88;;;4.57;;
69906;SDS011;57190;47.918;8.112;2023-06-10T04:52:17;5.18;;;4.57;;
69906;SDS011;57190;47.918;8.112;2023-06-10T04:54:43;4.88;;;4.57;;
69906;SDS011;57190;47.918;8.112;2023-06-10T04:57:09;5.30;;;4.97;;
69906;SDS011;57190;47.918;8.112;2023-06-10T04:59:35;5.10;;;4.80;;
69906;SDS011;57190;47.918;8.112;2023-06-10T05:02:03;5.30;;;5.00;;
69906;SDS011;57190;47.918;8.112;2023-06-10T05:04:30;5.68;;;5.20;;
69906;SDS011;57190;47.918;8.112;2023-06-10T05:06:55;5.50;;;4.93;;
69906;SDS011;57190;47.918;8.112;2023-06-10T05:09:21;4.90;;;4.50;;
69906;SDS011;57190;47.918;8.112;2023-06-10T05:21:38;4.90;;;4.50;;
69906;SDS011;57190;47.918;8.112;2023-06-10T05:24:04;4.95;;;4.65;;
69906;SDS011;57190;47.918;8.112;2023-06-10T05:26:29;5.78;;;5.28;;
69906;SDS011;57190;47.918;8.112;2023-06-10T05:28:56;5.60;;;5.15;;
69906;SDS011;57190;47.918;8.112;2023-06-10T05:31:22;5.43;;;4.95;;
69906;SDS011;57190;47.918;8.112;2023-06-10T05:33:48;5.30;;;5.00;;
69906;SDS011;57190;47.918;8.112;2023-06-10T05:36:13;5.28;;;4.97;;
69906;SDS011;57190;47.918;8.112;2023-06-10T05:38:38;5.22;;;4.85;;
69906;SDS011;57190;47.918;8.112;2023-06-10T05:41:04;5.00;;;4.70;;
69906;SDS011;57190;47.918;8.112;2023-06-10T05:43:29;5.63;;;5.22;;
69906;SDS011;57190;47.918;8.112;2023-06-10T05:45:55;5.57;;;5.13;;
69906;SDS011;57190;47.918;8.112;2023-06-10T05:48:20;5.28;;;4.88;;
69906;SDS011;57190;47.918;8.112;2023-06-10T05:50:46;5.47;;;5.07;;
69906;SDS011;57190;47.918;8.112;2023-06-10T05:53:16;5.22;;;4.72;;
69906;SDS011;57190;47.918;8.112;2023-06-10T05:55:42;4.90;;;4.60;;
69906;SDS011;57190;47.918;8.112;2023-06-10T05:58:08;4.15;;;3.85;;
69906;SDS011;57190;47.918;8.112;2023-06-10T06:00:34;5.47;;;5.07;;
69906;SDS011;57190;47.918;8.112;2023-06-10T06:02:59;4.95;;;4.63;;
69906;SDS011;57190;47.918;8.112;2023-06-10T06:05:25;4.90;;;4.50;;
69906;SDS011;57190;47.918;8.112;2023-06-10T06:07:50;5.03;;;4.70;;
69906;SDS011;57190;47.918;8.112;2023-06-10T06:10:17;5.35;;;4.95;;
69906;SDS011;57190;47.918;8.112;2023-06-10T06:12:43;5.15;;;4.75;;
69906;SDS011;57190;47.918;8.112;2023-06-10T06:15:09;5.15;;;4.82;;
69906;SDS011;57190;47.918;8.112;2023-06-10T06:17:36;5.03;;;4.72;;
69906;SDS011;57190;47.918;8.112;2023-06-10T06:20:02;5.68;;;5.28;;
69906;SDS011;57190;47.918;8.112;2023-06-10T06:22:28;5.75;;;5.28;;
69906;SDS011;57190;47.918;8.112;2023-06-10T06:24:54;5.22;;;4.90;;
69906;SDS011;57190;47.918;8.112;2023-06-10T06:27:20;4.68;;;4.38;;
69906;SDS011;57190;47.918;8.112;2023-06-10T06:29:46;5.35;;;5.00;;
69906;SDS011;57190;47.918;8.112;2023-06-10T06:32:11;5.07;;;4.68;;
69906;SDS011;57190;47.918;8.112;2023-06-10T06:34:37;4.50;;;4.20;;
69906;SDS011;57190;47.918;8.112;2023-06-10T06:37:03;5.43;;;5.03;;
69906;SDS011;57190;47.918;8.112;2023-06-10T06:39:29;5.07;;;4.78;;
69906;SDS011;57190;47.918;8.112;2023-06-10T06:41:55;5.50;;;5.10;;
69906;SDS011;57190;47.918;8.112;2023-06-10T06:44:20;5.15;;;4.80;;
69906;SDS011;57190;47.918;8.112;2023-06-10T06:46:46;4.57;;;4.28;;
69906;SDS011;57190;47.918;8.112;2023-06-10T06:49:11;5.32;;;5.00;;
69906;SDS011;57190;47.918;8.112;2023-06-10T06:51:37;5.30;;;4.90;;
69906;SDS011;57190;47.918;8.112;2023-06-10T06:54:02;5.07;;;4.78;;
69906;SDS011;57190;47.918;8.112;2023-06-10T06:56:30;4.82;;;4.53;;
69906;SDS011;57190;47.918;8.112;2023-06-10T06:58:56;5.15;;;4.75;;
69906;SDS011;57190;47.918;8.112;2023-06-10T07:01:21;4.40;;;4.00;;
69906;SDS011;57190;47.918;8.112;2023-06-10T07:03:47;4.40;;;4.10;;
69906;SDS011;57190;47.918;8.112;2023-06-10T07:06:13;4.40;;;4.03;;
69906;SDS011;57190;47.918;8.112;2023-06-10T07:08:38;4.82;;;4.53;;
69906;SDS011;57190;47.918;8.112;2023-06-10T07:11:04;4.90;;;4.60;;
69906;SDS011;57190;47.918;8.112;2023-06-10T07:13:29;5.05;;;4.65;;
69906;SDS011;57190;47.918;8.112;2023-06-10T07:15:55;4.68;;;4.28;;
69906;SDS011;57190;47.918;8.112;2023-06-10T07:18:20;5.03;;;4.72;;
69906;SDS011;57190;47.918;8.112;2023-06-10T07:20:46;5.75;;;5.30;;
69906;SDS011;57190;47.918;8.112;2023-06-10T07:23:11;5.03;;;4.72;;
69906;SDS011;57190;47.918;8.112;2023-06-10T07:25:37;4.90;;;4.60;;
69906;SDS011;57190;47.918;8.112;2023-06-10T07:28:03;6.00;;;5.40;;
69906;SDS011;57190;47.918;8.112;2023-06-10T07:30:28;4.97;;;4.68;;
69906;SDS011;57190;47.918;8.112;2023-06-10T07:32:54;5.00;;;4.70;;
69906;SDS011;57190;47.918;8.112;2023-06-10T07:35:20;5.07;;;4.57;;
69906;SDS011;57190;47.918;8.112;2023-06-10T07:37:46;4.88;;;4.57;;
69906;SDS011;57190;47.918;8.112;2023-06-10T07:40:12;4.72;;;4.43;;
69906;SDS011;57190;47.918;8.112;2023-06-10T07:42:37;4.88;;;4.57;;
69906;SDS011;57190;47.918;8.112;2023-06-10T07:45:03;4.97;;;4.68;;
69906;SDS011;57190;47.918;8.112;2023-06-10T07:47:29;4.70;;;4.40;;
69906;SDS011;57190;47.918;8.112;2023-06-10T07:49:56;4.60;;;4.20;;
69906;SDS011;57190;47.918;8.112;2023-06-10T07:52:21;4.95;;;4.57;;
69906;SDS011;57190;47.918;8.112;2023-06-10T07:54:47;4.85;;;4.45;;
69906;SDS011;57190;47.918;8.112;2023-06-10T07:57:12;5.00;;;4.70;;
69906;SDS011;57190;47.918;8.112;2023-06-10T07:59:38;4.68;;;4.32;;
69906;SDS011;57190;47.918;8.112;2023-06-10T08:02:04;4.65;;;4.28;;
69906;SDS011;57190;47.918;8.112;2023-06-10T08:04:30;5.00;;;4.50;;
69906;SDS011;57190;47.918;8.112;2023-06-10T08:06:56;4.40;;;4.10;;
69906;SDS011;57190;47.918;8.112;2023-06-10T08:09:22;4.43;;;4.13;;
69906;SDS011;57190;47.918;8.112;2023-06-10T08:11:48;4.97;;;4.68;;
69906;SDS011;57190;47.918;8.112;2023-06-10T08:14:14;4.63;;;4.32;;
69906;SDS011;57190;47.918;8.112;2023-06-10T08:16:41;5.22;;;4.82;;
69906;SDS011;57190;47.918;8.112;2023-06-10T08:19:08;5.00;;;4.60;;
69906;SDS011;57190;47.918;8.112;2023-06-10T08:21:34;4.32;;;4.03;;
69906;SDS011;57190;47.918;8.112;2023-06-10T08:24:02;4.53;;;4.25;;
69906;SDS011;57190;47.918;8.112;2023-06-10T08:26:28;4.68;;;4.38;;
69906;SDS011;57190;47.918;8.112;2023-06-10T08:28:54;4.40;;;4.10;;
69906;SDS011;57190;47.918;8.112;2023-06-10T08:31:20;4.88;;;4.47;;
69906;SDS011;57190;47.918;8.112;2023-06-10T08:33:46;4.60;;;4.30;;
69906;SDS011;57190;47.918;8.112;2023-06-10T08:39:33;4.35;;;4.05;;
69906;SDS011;57190;47.918;8.112;2023-06-10T08:44:37;4.68;;;4.28;;
69906;SDS011;57190;47.918;8.112;2023-06-10T08:47:06;4.90;;;4.60;;
69906;SDS011;57190;47.918;8.112;2023-06-10T08:49:38;4.22;;;3.92;;
69906;SDS011;57190;47.918;8.112;2023-06-10T08:52:06;4.93;;;4.53;;
69906;SDS011;57190;47.918;8.112;2023-06-10T08:54:33;4.68;;;4.38;;
69906;SDS011;57190;47.918;8.112;2023-06-10T08:57:02;4.20;;;4.00;;
69906;SDS011;57190;47.918;8.112;2023-06-10T08:59:31;4.22;;;3.92;;
69906;SDS011;57190;47.918;8.112;2023-06-10T09:01:57;4.53;;;4.13;;
69906;SDS011;57190;47.918;8.112;2023-06-10T09:04:24;4.88;;;4.55;;
69906;SDS011;57190;47.918;8.112;2023-06-10T09:06:50;4.57;;;4.32;;
69906;SDS011;57190;47.918;8.112;2023-06-10T09:09:17;4.63;;;4.30;;
69906;SDS011;57190;47.918;8.112;2023-06-10T09:11:45;5.55;;;5.15;;
69906;SDS011;57190;47.918;8.112;2023-06-10T09:14:11;4.43;;;4.13;;
69906;SDS011;57190;47.918;8.112;2023-06-10T09:16:38;4.50;;;4.20;;
69906;SDS011;57190;47.918;8.112;2023-06-10T09:19:04;4.28;;;3.97;;
69906;SDS011;57190;47.918;8.112;2023-06-10T09:21:33;4.97;;;4.68;;
69906;SDS011;57190;47.918;8.112;2023-06-10T09:24:00;4.88;;;4.47;;
69906;SDS011;57190;47.918;8.112;2023-06-10T09:26:30;4.88;;;4.53;;
69906;SDS011;57190;47.918;8.112;2023-06-10T09:29:05;5.07;;;4.68;;
69906;SDS011;57190;47.918;8.112;2023-06-10T09:31:34;6.10;;;5.57;;
69906;SDS011;57190;47.918;8.112;2023-06-10T09:36:42;4.43;;;4.00;;
69906;SDS011;57190;47.918;8.112;2023-06-10T09:39:15;4.20;;;3.90;;
69906;SDS011;57190;47.918;8.112;2023-06-10T09:41:43;4.80;;;4.50;;
69906;SDS011;57190;47.918;8.112;2023-06-10T09:44:13;4.95;;;4.55;;
69906;SDS011;57190;47.918;8.112;2023-06-10T09:46:41;6.68;;;5.60;;
69906;SDS011;57190;47.918;8.112;2023-06-10T09:49:07;12.68;;;7.78;;
69906;SDS011;57190;47.918;8.112;2023-06-10T09:51:33;5.55;;;5.05;;
69906;SDS011;57190;47.918;8.112;2023-06-10T09:53:59;4.15;;;3.90;;
69906;SDS011;57190;47.918;8.112;2023-06-10T09:56:34;4.15;;;3.85;;
69906;SDS011;57190;47.918;8.112;2023-06-10T09:59:00;4.10;;;3.80;;
69906;SDS011;57190;47.918;8.112;2023-06-10T10:01:26;5.38;;;4.90;;
69906;SDS011;57190;47.918;8.112;2023-06-10T10:03:53;4.20;;;3.90;;
69906;SDS011;57190;47.918;8.112;2023-06-10T10:06:19;4.80;;;4.47;;
69906;SDS011;57190;47.918;8.112;2023-06-10T10:08:46;4.07;;;3.78;;
69906;SDS011;57190;47.918;8.112;2023-06-10T10:11:14;4.57;;;4.38;;
69906;SDS011;57190;47.918;8.112;2023-06-10T10:13:42;4.10;;;3.80;;
69906;SDS011;57190;47.918;8.112;2023-06-10T10:16:14;4.28;;;3.97;;
69906;SDS011;57190;47.918;8.112;2023-06-10T10:19:08;3.95;;;3.70;;
69906;SDS011;57190;47.918;8.112;2023-06-10T10:21:39;4.13;;;3.92;;
69906;SDS011;57190;47.918;8.112;2023-06-10T10:24:19;4.28;;;3.90;;
69906;SDS011;57190;47.918;8.112;2023-06-10T10:26:47;4.78;;;4.47;;
69906;SDS011;57190;47.918;8.112;2023-06-10T10:29:31;4.20;;;3.90;;
69906;SDS011;57190;47.918;8.112;2023-06-10T10:32:04;4.15;;;3.92;;
69906;SDS011;57190;47.918;8.112;2023-06-10T10:34:42;4.72;;;3.80;;
69906;SDS011;57190;47.918;8.112;2023-06-10T10:37:30;4.90;;;4.43;;
69906;SDS011;57190;47.918;8.112;2023-06-10T10:39:56;5.15;;;4.75;;
69906;SDS011;57190;47.918;8.112;2023-06-10T10:42:23;4.30;;;4.00;;
69906;SDS011;57190;47.918;8.112;2023-06-10T10:44:50;5.35;;;4.85;;
69906;SDS011;57190;47.918;8.112;2023-06-10T10:47:17;4.45;;;4.15;;
69906;SDS011;57190;47.918;8.112;2023-06-10T10:49:47;4.78;;;4.47;;
69906;SDS011;57190;47.918;8.112;2023-06-10T10:52:17;4.47;;;4.18;;
69906;SDS011;57190;47.918;8.112;2023-06-10T10:54:43;4.28;;;3.97;;
69906;SDS011;57190;47.918;8.112;2023-06-10T10:57:18;4.65;;;4.22;;
69906;SDS011;57190;47.918;8.112;2023-06-10T11:02:32;3.97;;;3.78;;
69906;SDS011;57190;47.918;8.112;2023-06-10T11:05:14;4.25;;;3.95;;
69906;SDS011;57190;47.918;8.112;2023-06-10T11:07:51;4.80;;;4.30;;
69906;SDS011;57190;47.918;8.112;2023-06-10T11:10:28;4.55;;;4.25;;
69906;SDS011;57190;47.918;8.112;2023-06-10T11:12:56;4.32;;;4.03;;
69906;SDS011;57190;47.918;8.112;2023-06-10T11:15:26;4.40;;;4.10;;
69906;SDS011;57190;47.918;8.112;2023-06-10T11:20:53;4.95;;;4.55;;
69906;SDS011;57190;47.918;8.112;2023-06-10T11:33:52;4.15;;;3.85;;
69906;SDS011;57190;47.918;8.112;2023-06-10T11:36:19;4.03;;;3.72;;
69906;SDS011;57190;47.918;8.112;2023-06-10T11:38:45;4.18;;;3.88;;
69906;SDS011;57190;47.918;8.112;2023-06-10T11:41:11;3.92;;;3.67;;
69906;SDS011;57190;47.918;8.112;2023-06-10T11:43:46;4.30;;;4.00;;
69906;SDS011;57190;47.918;8.112;2023-06-10T11:46:13;3.83;;;3.63;;
69906;SDS011;57190;47.918;8.112;2023-06-10T11:48:47;4.00;;;3.80;;
69906;SDS011;57190;47.918;8.112;2023-06-10T11:51:27;4.57;;;4.28;;
69906;SDS011;57190;47.918;8.112;2023-06-10T11:53:54;4.07;;;3.75;;
69906;SDS011;57190;47.918;8.112;2023-06-10T11:56:24;3.92;;;3.72;;
69906;SDS011;57190;47.918;8.112;2023-06-10T11:59:13;4.55;;;4.22;;
69906;SDS011;57190;47.918;8.112;2023-06-10T12:01:41;3.80;;;3.60;;
69906;SDS011;57190;47.918;8.112;2023-06-10T12:04:10;4.20;;;3.90;;
69906;SDS011;57190;47.918;8.112;2023-06-10T12:06:43;4.30;;;4.00;;
69906;SDS011;57190;47.918;8.112;2023-06-10T12:09:30;4.55;;;4.25;;
69906;SDS011;57190;47.918;8.112;2023-06-10T12:11:59;4.18;;;3.83;;
69906;SDS011;57190;47.918;8.112;2023-06-10T12:19:55;3.78;;;3.55;;
69906;SDS011;57190;47.918;8.112;2023-06-10T12:22:21;3.85;;;3.65;;
69906;SDS011;57190;47.918;8.112;2023-06-10T12:25:01;4.13;;;3.85;;
69906;SDS011;57190;47.918;8.112;2023-06-10T12:27:30;4.38;;;3.97;;
69906;SDS011;57190;47.918;8.112;2023-06-10T12:30:00;4.38;;;4.07;;
69906;SDS011;57190;47.918;8.112;2023-06-10T12:32:41;4.30;;;3.90;;
69906;SDS011;57190;47.918;8.112;2023-06-10T12:35:12;4.93;;;4.45;;
69906;SDS011;57190;47.918;8.112;2023-06-10T12:37:42;4.90;;;4.03;;
69906;SDS011;57190;47.918;8.112;2023-06-10T12:40:08;4.57;;;4.18;;
69906;SDS011;57190;47.918;8.112;2023-06-10T12:42:36;4.20;;;4.00;;
69906;SDS011;57190;47.918;8.112;2023-06-10T12:45:03;4.03;;;3.75;;
69906;SDS011;57190;47.918;8.112;2023-06-10T12:47:29;4.20;;;3.80;;
69906;SDS011;57190;47.918;8.112;2023-06-10T12:50:00;3.92;;;3.63;;
69906;SDS011;57190;47.918;8.112;2023-06-10T12:52:26;3.53;;;3.33;;
69906;SDS011;57190;47.918;8.112;2023-06-10T12:54:55;4.15;;;3.85;;
69906;SDS011;57190;47.918;8.112;2023-06-10T12:57:22;3.67;;;3.47;;
69906;SDS011;57190;47.918;8.112;2023-06-10T12:59:47;3.80;;;3.60;;
69906;SDS011;57190;47.918;8.112;2023-06-10T13:02:22;3.95;;;3.65;;
69906;SDS011;57190;47.918;8.112;2023-06-10T13:04:52;3.75;;;3.47;;
69906;SDS011;57190;47.918;8.112;2023-06-10T13:07:18;4.43;;;4.13;;
69906;SDS011;57190;47.918;8.112;2023-06-10T13:09:44;4.90;;;4.50;;
69906;SDS011;57190;47.918;8.112;2023-06-10T13:12:10;4.38;;;4.07;;
69906;SDS011;57190;47.918;8.112;2023-06-10T13:14:37;4.50;;;4.20;;
69906;SDS011;57190;47.918;8.112;2023-06-10T13:17:03;3.80;;;3.60;;
69906;SDS011;57190;47.918;8.112;2023-06-10T13:19:31;3.95;;;3.75;;
69906;SDS011;57190;47.918;8.112;2023-06-10T13:21:58;3.88;;;3.67;;
69906;SDS011;57190;47.918;8.112;2023-06-10T13:24:24;4.43;;;4.13;;
69906;SDS011;57190;47.918;8.112;2023-06-10T13:26:49;4.00;;;3.80;;
69906;SDS011;57190;47.918;8.112;2023-06-10T13:29:15;3.85;;;3.53;;
69906;SDS011;57190;47.918;8.112;2023-06-10T13:31:41;3.88;;;3.67;;
69906;SDS011;57190;47.918;8.112;2023-06-10T13:34:07;4.20;;;3.80;;
69906;SDS011;57190;47.918;8.112;2023-06-10T13:36:33;3.38;;;3.17;;
69906;SDS011;57190;47.918;8.112;2023-06-10T13:38:58;3.40;;;3.20;;
69906;SDS011;57190;47.918;8.112;2023-06-10T13:41:25;3.65;;;3.45;;
69906;SDS011;57190;47.918;8.112;2023-06-10T13:43:54;3.15;;;2.95;;
69906;SDS011;57190;47.918;8.112;2023-06-10T13:46:20;3.35;;;3.15;;
69906;SDS011;57190;47.918;8.112;2023-06-10T13:48:46;2.97;;;2.78;;
69906;SDS011;57190;47.918;8.112;2023-06-10T13:51:12;2.92;;;2.83;;
69906;SDS011;57190;47.918;8.112;2023-06-10T13:53:37;3.25;;;3.05;;
69906;SDS011;57190;47.918;8.112;2023-06-10T13:56:03;2.80;;;2.60;;
69906;SDS011;57190;47.918;8.112;2023-06-10T13:58:29;3.70;;;3.40;;
69906;SDS011;57190;47.918;8.112;2023-06-10T14:00:54;3.45;;;3.25;;
69906;SDS011;57190;47.918;8.112;2023-06-10T14:03:20;3.60;;;3.40;;
69906;SDS011;57190;47.918;8.112;2023-06-10T14:05:46;3.28;;;3.08;;
69906;SDS011;57190;47.918;8.112;2023-06-10T14:08:11;3.53;;;3.33;;
69906;SDS011;57190;47.918;8.112;2023-06-10T14:10:37;3.47;;;3.28;;
69906;SDS011;57190;47.918;8.112;2023-06-10T14:13:02;3.20;;;3.00;;
69906;SDS011;57190;47.918;8.112;2023-06-10T14:15:28;3.13;;;2.92;;
69906;SDS011;57190;47.918;8.112;2023-06-10T14:17:53;3.30;;;3.10;;
69906;SDS011;57190;47.918;8.112;2023-06-10T14:20:20;3.20;;;2.90;;
69906;SDS011;57190;47.918;8.112;2023-06-10T14:22:45;3.40;;;3.20;;
69906;SDS011;57190;47.918;8.112;2023-06-10T14:25:11;3.17;;;2.88;;
69906;SDS011;57190;47.918;8.112;2023-06-10T14:27:37;3.20;;;3.00;;
69906;SDS011;57190;47.918;8.112;2023-06-10T14:30:03;3.20;;;3.00;;
69906;SDS011;57190;47.918;8.112;2023-06-10T14:32:29;3.17;;;2.97;;
69906;SDS011;57190;47.918;8.112;2023-06-10T14:34:54;3.55;;;3.20;;
69906;SDS011;57190;47.918;8.112;2023-06-10T14:37:20;3.40;;;3.20;;
69906;SDS011;57190;47.918;8.112;2023-06-10T14:39:46;3.50;;;3.28;;
69906;SDS011;57190;47.918;8.112;2023-06-10T14:42:12;2.50;;;2.40;;
69906;SDS011;57190;47.918;8.112;2023-06-10T14:44:37;2.58;;;2.47;;
69906;SDS011;57190;47.918;8.112;2023-06-10T14:47:03;2.50;;;2.40;;
69906;SDS011;57190;47.918;8.112;2023-06-10T14:49:29;2.30;;;2.20;;
69906;SDS011;57190;47.918;8.112;2023-06-10T14:51:55;2.30;;;2.20;;
69906;SDS011;57190;47.918;8.112;2023-06-10T14:54:21;2.40;;;2.30;;
69906;SDS011;57190;47.918;8.112;2023-06-10T14:56:46;2.38;;;2.28;;
69906;SDS011;57190;47.918;8.112;2023-06-10T14:59:12;2.58;;;2.47;;
69906;SDS011;57190;47.918;8.112;2023-06-10T15:01:38;3.40;;;2.60;;
69906;SDS011;57190;47.918;8.112;2023-06-10T15:04:06;2.97;;;2.67;;
69906;SDS011;57190;47.918;8.112;2023-06-10T15:06:31;2.40;;;2.30;;
69906;SDS011;57190;47.918;8.112;2023-06-10T15:08:57;2.60;;;2.50;;
69906;SDS011;57190;47.918;8.112;2023-06-10T15:11:24;2.65;;;2.55;;
69906;SDS011;57190;47.918;8.112;2023-06-10T15:13:50;2.60;;;2.50;;
69906;SDS011;57190;47.918;8.112;2023-06-10T15:16:16;2.65;;;2.55;;
69906;SDS011;57190;47.918;8.112;2023-06-10T15:18:42;2.45;;;2.35;;
69906;SDS011;57190;47.918;8.112;2023-06-10T15:21:07;3.20;;;2.88;;
69906;SDS011;57190;47.918;8.112;2023-06-10T15:23:33;2.42;;;2.33;;
69906;SDS011;57190;47.918;8.112;2023-06-10T15:25:59;2.78;;;2.67;;
69906;SDS011;57190;47.918;8.112;2023-06-10T15:28:26;2.63;;;2.53;;
69906;SDS011;57190;47.918;8.112;2023-06-10T15:30:53;2.53;;;2.40;;
69906;SDS011;57190;47.918;8.112;2023-06-10T15:33:19;2.30;;;2.20;;